sensor_id;sensor_type;location;lat;lon;timestamp;temperature;humidity
32139;DHT22;18644;48.700;9.210;2023-04-03T00:01:30;7.70;57.40
32139;DHT22;18644;48.700;9.210;2023-04-03T00:03:58;7.70;57.40
32139;DHT22;18644;48.700;9.210;2023-04-03T00:06:25;7.70;57.40
32139;DHT22;18644;48.700;9.210;2023-04-03T00:08:52;7.70;57.40
32139;DHT22;18644;48.700;9.210;2023-04-03T00:11:19;7.60;57.40
32139;DHT22;18644;48.700;9.210;2023-04-03T00:13:47;7.60;57.40
32139;DHT22;18644;48.700;9.210;2023-04-03T00:16:14;7.70;57.50
32139;DHT22;18644;48.700;9.210;2023-04-03T00:18:41;7.60;57.40
32139;DHT22;18644;48.700;9.210;2023-04-03T00:21:09;7.60;57.40
32139;DHT22;18644;48.700;9.210;2023-04-03T00:23:37;7.70;57.40
32139;DHT22;18644;48.700;9.210;2023-04-03T00:26:04;7.60;57.40
32139;DHT22;18644;48.700;9.210;2023-04-03T00:28:30;7.60;57.40
32139;DHT22;18644;48.700;9.210;2023-04-03T00:30:57;7.60;57.40
32139;DHT22;18644;48.700;9.210;2023-04-03T00:33:25;7.60;57.40
32139;DHT22;18644;48.700;9.210;2023-04-03T00:35:51;7.60;57.40
32139;DHT22;18644;48.700;9.210;2023-04-03T00:38:20;7.60;57.40
32139;DHT22;18644;48.700;9.210;2023-04-03T00:40:47;7.60;57.30
32139;DHT22;18644;48.700;9.210;2023-04-03T00:43:15;7.60;57.30
32139;DHT22;18644;48.700;9.210;2023-04-03T00:45:43;7.60;57.30
32139;DHT22;18644;48.700;9.210;2023-04-03T00:48:12;7.60;57.30
32139;DHT22;18644;48.700;9.210;2023-04-03T00:50:41;7.60;57.40
32139;DHT22;18644;48.700;9.210;2023-04-03T00:53:10;7.60;57.40
32139;DHT22;18644;48.700;9.210;2023-04-03T00:55:40;7.60;57.40
32139;DHT22;18644;48.700;9.210;2023-04-03T00:58:08;7.50;57.30
32139;DHT22;18644;48.700;9.210;2023-04-03T01:00:35;7.50;57.30
32139;DHT22;18644;48.700;9.210;2023-04-03T01:03:03;7.50;57.30
32139;DHT22;18644;48.700;9.210;2023-04-03T01:05:30;7.50;57.30
32139;DHT22;18644;48.700;9.210;2023-04-03T01:07:57;7.50;57.30
32139;DHT22;18644;48.700;9.210;2023-04-03T01:10:24;7.50;57.30
32139;DHT22;18644;48.700;9.210;2023-04-03T01:12:53;7.50;57.30
32139;DHT22;18644;48.700;9.210;2023-04-03T01:15:20;7.50;57.30
32139;DHT22;18644;48.700;9.210;2023-04-03T01:17:49;7.50;57.30
32139;DHT22;18644;48.700;9.210;2023-04-03T01:23:17;7.50;57.30
32139;DHT22;18644;48.700;9.210;2023-04-03T01:25:59;7.40;57.30
32139;DHT22;18644;48.700;9.210;2023-04-03T01:28:28;7.40;57.30
32139;DHT22;18644;48.700;9.210;2023-04-03T01:30:59;7.40;57.30
32139;DHT22;18644;48.700;9.210;2023-04-03T01:33:30;7.40;57.30
32139;DHT22;18644;48.700;9.210;2023-04-03T01:35:57;7.40;57.30
32139;DHT22;18644;48.700;9.210;2023-04-03T01:38:24;7.40;57.30
32139;DHT22;18644;48.700;9.210;2023-04-03T01:40:50;7.40;57.30
32139;DHT22;18644;48.700;9.210;2023-04-03T01:43:18;7.40;57.30
32139;DHT22;18644;48.700;9.210;2023-04-03T01:45:45;7.40;57.30
32139;DHT22;18644;48.700;9.210;2023-04-03T01:48:14;7.30;57.20
32139;DHT22;18644;48.700;9.210;2023-04-03T01:50:42;7.30;57.30
32139;DHT22;18644;48.700;9.210;2023-04-03T01:53:09;7.30;57.30
32139;DHT22;18644;48.700;9.210;2023-04-03T01:55:36;7.30;57.30
32139;DHT22;18644;48.700;9.210;2023-04-03T01:58:03;7.30;57.30
32139;DHT22;18644;48.700;9.210;2023-04-03T02:00:30;7.30;57.30
32139;DHT22;18644;48.700;9.210;2023-04-03T02:02:57;7.20;57.30
32139;DHT22;18644;48.700;9.210;2023-04-03T02:05:23;7.20;57.20
32139;DHT22;18644;48.700;9.210;2023-04-03T02:07:52;7.20;57.20
32139;DHT22;18644;48.700;9.210;2023-04-03T02:10:18;7.20;57.30
32139;DHT22;18644;48.700;9.210;2023-04-03T02:12:45;7.20;57.20
32139;DHT22;18644;48.700;9.210;2023-04-03T02:15:12;7.20;57.30
32139;DHT22;18644;48.700;9.210;2023-04-03T02:17:39;7.20;57.30
32139;DHT22;18644;48.700;9.210;2023-04-03T02:20:07;7.20;57.30
32139;DHT22;18644;48.700;9.210;2023-04-03T02:22:34;7.20;57.30
32139;DHT22;18644;48.700;9.210;2023-04-03T02:25:03;7.20;57.30
32139;DHT22;18644;48.700;9.210;2023-04-03T02:27:30;7.20;57.40
32139;DHT22;18644;48.700;9.210;2023-04-03T02:29:57;7.20;57.30
32139;DHT22;18644;48.700;9.210;2023-04-03T02:32:24;7.20;57.30
32139;DHT22;18644;48.700;9.210;2023-04-03T02:34:51;7.20;57.30
32139;DHT22;18644;48.700;9.210;2023-04-03T02:37:18;7.20;57.30
32139;DHT22;18644;48.700;9.210;2023-04-03T02:39:44;7.20;57.30
32139;DHT22;18644;48.700;9.210;2023-04-03T02:42:12;7.10;57.80
32139;DHT22;18644;48.700;9.210;2023-04-03T02:44:40;7.20;57.30
32139;DHT22;18644;48.700;9.210;2023-04-03T02:47:07;7.20;57.30
32139;DHT22;18644;48.700;9.210;2023-04-03T02:49:33;7.20;57.30
32139;DHT22;18644;48.700;9.210;2023-04-03T02:52:00;7.20;57.20
32139;DHT22;18644;48.700;9.210;2023-04-03T02:54:27;7.20;57.20
32139;DHT22;18644;48.700;9.210;2023-04-03T02:56:55;7.20;57.10
32139;DHT22;18644;48.700;9.210;2023-04-03T02:59:24;7.20;57.10
32139;DHT22;18644;48.700;9.210;2023-04-03T03:01:51;7.20;57.00
32139;DHT22;18644;48.700;9.210;2023-04-03T03:04:18;7.20;57.00
32139;DHT22;18644;48.700;9.210;2023-04-03T03:06:45;7.20;57.00
32139;DHT22;18644;48.700;9.210;2023-04-03T03:09:13;7.20;57.00
32139;DHT22;18644;48.700;9.210;2023-04-03T03:11:40;7.20;57.00
32139;DHT22;18644;48.700;9.210;2023-04-03T03:14:07;7.20;57.00
32139;DHT22;18644;48.700;9.210;2023-04-03T03:16:35;7.20;57.00
32139;DHT22;18644;48.700;9.210;2023-04-03T03:19:02;7.10;57.00
32139;DHT22;18644;48.700;9.210;2023-04-03T03:21:29;7.20;57.00
32139;DHT22;18644;48.700;9.210;2023-04-03T03:23:56;7.10;56.90
32139;DHT22;18644;48.700;9.210;2023-04-03T03:26:23;7.10;56.90
32139;DHT22;18644;48.700;9.210;2023-04-03T03:28:50;7.10;56.90
32139;DHT22;18644;48.700;9.210;2023-04-03T03:31:17;7.10;56.90
32139;DHT22;18644;48.700;9.210;2023-04-03T03:33:45;7.10;56.90
32139;DHT22;18644;48.700;9.210;2023-04-03T03:36:12;7.10;56.90
32139;DHT22;18644;48.700;9.210;2023-04-03T03:38:39;7.10;56.80
32139;DHT22;18644;48.700;9.210;2023-04-03T03:41:05;7.10;56.90
32139;DHT22;18644;48.700;9.210;2023-04-03T03:43:32;7.10;56.90
32139;DHT22;18644;48.700;9.210;2023-04-03T03:45:59;7.10;57.40
32139;DHT22;18644;48.700;9.210;2023-04-03T03:48:26;7.10;56.80
32139;DHT22;18644;48.700;9.210;2023-04-03T03:50:54;7.10;56.80
32139;DHT22;18644;48.700;9.210;2023-04-03T03:53:21;7.10;56.80
32139;DHT22;18644;48.700;9.210;2023-04-03T03:55:48;7.10;56.70
32139;DHT22;18644;48.700;9.210;2023-04-03T03:58:15;7.10;56.80
32139;DHT22;18644;48.700;9.210;2023-04-03T04:00:42;7.10;56.70
32139;DHT22;18644;48.700;9.210;2023-04-03T04:03:08;7.10;56.70
32139;DHT22;18644;48.700;9.210;2023-04-03T04:05:35;7.10;56.70
32139;DHT22;18644;48.700;9.210;2023-04-03T04:08:03;7.00;56.70
32139;DHT22;18644;48.700;9.210;2023-04-03T04:10:30;7.00;56.70
32139;DHT22;18644;48.700;9.210;2023-04-03T04:12:57;7.00;56.80
32139;DHT22;18644;48.700;9.210;2023-04-03T04:15:24;7.10;56.80
32139;DHT22;18644;48.700;9.210;2023-04-03T04:17:52;7.00;56.80
32139;DHT22;18644;48.700;9.210;2023-04-03T04:20:19;7.10;56.90
32139;DHT22;18644;48.700;9.210;2023-04-03T04:22:46;7.00;56.80
32139;DHT22;18644;48.700;9.210;2023-04-03T04:25:14;7.00;56.70
32139;DHT22;18644;48.700;9.210;2023-04-03T04:27:41;7.00;56.80
32139;DHT22;18644;48.700;9.210;2023-04-03T04:30:09;7.00;56.80
32139;DHT22;18644;48.700;9.210;2023-04-03T04:32:37;7.10;56.90
32139;DHT22;18644;48.700;9.210;2023-04-03T04:35:04;7.10;56.70
32139;DHT22;18644;48.700;9.210;2023-04-03T04:37:31;7.10;56.70
32139;DHT22;18644;48.700;9.210;2023-04-03T04:39:58;7.10;56.60
32139;DHT22;18644;48.700;9.210;2023-04-03T04:42:27;7.10;56.60
32139;DHT22;18644;48.700;9.210;2023-04-03T04:44:54;7.10;56.70
32139;DHT22;18644;48.700;9.210;2023-04-03T04:47:21;7.10;56.60
32139;DHT22;18644;48.700;9.210;2023-04-03T04:49:47;7.10;56.50
32139;DHT22;18644;48.700;9.210;2023-04-03T04:52:14;7.00;56.40
32139;DHT22;18644;48.700;9.210;2023-04-03T04:54:41;7.10;56.40
32139;DHT22;18644;48.700;9.210;2023-04-03T04:57:08;7.00;56.30
32139;DHT22;18644;48.700;9.210;2023-04-03T04:59:37;7.00;56.30
32139;DHT22;18644;48.700;9.210;2023-04-03T05:02:04;7.00;56.30
32139;DHT22;18644;48.700;9.210;2023-04-03T05:04:31;7.00;56.30
32139;DHT22;18644;48.700;9.210;2023-04-03T05:06:58;7.10;56.40
32139;DHT22;18644;48.700;9.210;2023-04-03T05:09:25;7.10;56.30
32139;DHT22;18644;48.700;9.210;2023-04-03T05:11:52;7.10;56.20
32139;DHT22;18644;48.700;9.210;2023-04-03T05:14:19;7.00;56.10
32139;DHT22;18644;48.700;9.210;2023-04-03T05:16:48;7.10;56.10
32139;DHT22;18644;48.700;9.210;2023-04-03T05:19:18;7.10;56.20
32139;DHT22;18644;48.700;9.210;2023-04-03T05:21:45;7.10;56.10
32139;DHT22;18644;48.700;9.210;2023-04-03T05:24:12;7.10;56.20
32139;DHT22;18644;48.700;9.210;2023-04-03T05:26:40;7.10;56.10
32139;DHT22;18644;48.700;9.210;2023-04-03T05:29:07;7.10;56.10
32139;DHT22;18644;48.700;9.210;2023-04-03T05:31:34;7.10;56.10
32139;DHT22;18644;48.700;9.210;2023-04-03T05:34:03;7.10;56.10
32139;DHT22;18644;48.700;9.210;2023-04-03T05:36:29;7.20;56.10
32139;DHT22;18644;48.700;9.210;2023-04-03T05:38:56;7.20;56.10
32139;DHT22;18644;48.700;9.210;2023-04-03T05:41:23;7.20;56.00
32139;DHT22;18644;48.700;9.210;2023-04-03T05:43:50;7.30;56.10
32139;DHT22;18644;48.700;9.210;2023-04-03T05:46:18;7.30;56.10
32139;DHT22;18644;48.700;9.210;2023-04-03T05:48:45;7.30;56.10
32139;DHT22;18644;48.700;9.210;2023-04-03T05:51:15;7.40;55.80
32139;DHT22;18644;48.700;9.210;2023-04-03T05:53:46;7.40;55.80
32139;DHT22;18644;48.700;9.210;2023-04-03T05:56:13;7.40;55.60
32139;DHT22;18644;48.700;9.210;2023-04-03T05:58:40;7.40;55.60
32139;DHT22;18644;48.700;9.210;2023-04-03T06:01:07;7.40;55.50
32139;DHT22;18644;48.700;9.210;2023-04-03T06:03:34;7.40;55.50
32139;DHT22;18644;48.700;9.210;2023-04-03T06:06:02;7.40;55.40
32139;DHT22;18644;48.700;9.210;2023-04-03T06:08:31;7.40;55.60
32139;DHT22;18644;48.700;9.210;2023-04-03T06:10:59;7.40;55.40
32139;DHT22;18644;48.700;9.210;2023-04-03T06:13:27;7.40;55.50
32139;DHT22;18644;48.700;9.210;2023-04-03T06:15:54;7.30;55.40
32139;DHT22;18644;48.700;9.210;2023-04-03T06:18:21;7.30;55.50
32139;DHT22;18644;48.700;9.210;2023-04-03T06:20:48;7.30;55.50
32139;DHT22;18644;48.700;9.210;2023-04-03T06:23:15;7.40;55.70
32139;DHT22;18644;48.700;9.210;2023-04-03T06:25:44;7.40;55.70
32139;DHT22;18644;48.700;9.210;2023-04-03T06:28:11;7.40;55.70
32139;DHT22;18644;48.700;9.210;2023-04-03T06:30:38;7.40;55.70
32139;DHT22;18644;48.700;9.210;2023-04-03T06:33:05;7.50;55.80
32139;DHT22;18644;48.700;9.210;2023-04-03T06:35:31;7.50;55.60
32139;DHT22;18644;48.700;9.210;2023-04-03T06:38:00;7.50;55.50
32139;DHT22;18644;48.700;9.210;2023-04-03T06:40:29;7.60;55.50
32139;DHT22;18644;48.700;9.210;2023-04-03T06:42:57;7.60;55.70
32139;DHT22;18644;48.700;9.210;2023-04-03T06:45:24;7.60;55.60
32139;DHT22;18644;48.700;9.210;2023-04-03T06:47:51;7.70;55.50
32139;DHT22;18644;48.700;9.210;2023-04-03T06:50:18;7.70;55.30
32139;DHT22;18644;48.700;9.210;2023-04-03T06:52:45;7.70;55.20
32139;DHT22;18644;48.700;9.210;2023-04-03T06:55:12;7.70;55.30
32139;DHT22;18644;48.700;9.210;2023-04-03T06:57:39;7.70;55.20
32139;DHT22;18644;48.700;9.210;2023-04-03T07:00:08;7.80;55.30
32139;DHT22;18644;48.700;9.210;2023-04-03T07:02:36;7.80;55.40
32139;DHT22;18644;48.700;9.210;2023-04-03T07:05:03;7.80;55.40
32139;DHT22;18644;48.700;9.210;2023-04-03T07:07:30;7.80;55.30
32139;DHT22;18644;48.700;9.210;2023-04-03T07:09:59;7.90;55.20
32139;DHT22;18644;48.700;9.210;2023-04-03T07:12:26;7.90;55.30
32139;DHT22;18644;48.700;9.210;2023-04-03T07:14:52;7.90;55.30
32139;DHT22;18644;48.700;9.210;2023-04-03T07:17:21;7.90;55.40
32139;DHT22;18644;48.700;9.210;2023-04-03T07:19:48;8.00;55.40
32139;DHT22;18644;48.700;9.210;2023-04-03T07:22:15;8.00;56.10
32139;DHT22;18644;48.700;9.210;2023-04-03T07:24:42;8.00;55.30
32139;DHT22;18644;48.700;9.210;2023-04-03T07:27:09;8.10;55.40
32139;DHT22;18644;48.700;9.210;2023-04-03T07:29:37;8.10;55.30
32139;DHT22;18644;48.700;9.210;2023-04-03T07:32:05;8.10;55.30
32139;DHT22;18644;48.700;9.210;2023-04-03T07:34:33;8.20;55.40
32139;DHT22;18644;48.700;9.210;2023-04-03T07:37:02;8.30;55.90
32139;DHT22;18644;48.700;9.210;2023-04-03T07:39:30;8.30;55.20
32139;DHT22;18644;48.700;9.210;2023-04-03T07:41:56;8.40;55.30
32139;DHT22;18644;48.700;9.210;2023-04-03T07:44:23;8.40;55.10
32139;DHT22;18644;48.700;9.210;2023-04-03T07:46:51;8.50;54.90
32139;DHT22;18644;48.700;9.210;2023-04-03T07:49:18;8.50;54.70
32139;DHT22;18644;48.700;9.210;2023-04-03T07:51:46;8.60;54.90
32139;DHT22;18644;48.700;9.210;2023-04-03T07:54:13;8.60;55.10
32139;DHT22;18644;48.700;9.210;2023-04-03T07:56:40;8.60;54.90
32139;DHT22;18644;48.700;9.210;2023-04-03T07:59:08;8.70;54.90
32139;DHT22;18644;48.700;9.210;2023-04-03T08:01:36;8.80;55.00
32139;DHT22;18644;48.700;9.210;2023-04-03T08:04:03;8.90;54.80
32139;DHT22;18644;48.700;9.210;2023-04-03T08:06:30;8.90;54.80
32139;DHT22;18644;48.700;9.210;2023-04-03T08:09:01;9.00;54.90
32139;DHT22;18644;48.700;9.210;2023-04-03T08:11:29;9.10;54.80
32139;DHT22;18644;48.700;9.210;2023-04-03T08:13:56;9.20;54.70
32139;DHT22;18644;48.700;9.210;2023-04-03T08:16:23;9.20;54.60
32139;DHT22;18644;48.700;9.210;2023-04-03T08:18:52;9.30;54.80
32139;DHT22;18644;48.700;9.210;2023-04-03T08:21:18;9.40;54.40
32139;DHT22;18644;48.700;9.210;2023-04-03T08:23:47;9.50;54.50
32139;DHT22;18644;48.700;9.210;2023-04-03T08:26:17;9.50;54.40
32139;DHT22;18644;48.700;9.210;2023-04-03T08:28:46;9.60;54.30
32139;DHT22;18644;48.700;9.210;2023-04-03T08:31:14;9.70;54.00
32139;DHT22;18644;48.700;9.210;2023-04-03T08:33:43;9.70;54.20
32139;DHT22;18644;48.700;9.210;2023-04-03T08:36:18;9.70;54.20
32139;DHT22;18644;48.700;9.210;2023-04-03T08:38:46;9.80;54.00
32139;DHT22;18644;48.700;9.210;2023-04-03T08:41:14;9.90;53.90
32139;DHT22;18644;48.700;9.210;2023-04-03T08:43:46;9.90;53.80
32139;DHT22;18644;48.700;9.210;2023-04-03T08:46:19;10.00;53.90
32139;DHT22;18644;48.700;9.210;2023-04-03T08:48:49;10.00;53.80
32139;DHT22;18644;48.700;9.210;2023-04-03T08:51:17;10.10;54.00
32139;DHT22;18644;48.700;9.210;2023-04-03T08:53:48;10.20;53.80
32139;DHT22;18644;48.700;9.210;2023-04-03T08:56:21;10.20;53.90
32139;DHT22;18644;48.700;9.210;2023-04-03T08:58:52;10.30;53.90
32139;DHT22;18644;48.700;9.210;2023-04-03T09:01:23;10.30;53.70
32139;DHT22;18644;48.700;9.210;2023-04-03T09:03:51;10.40;53.10
32139;DHT22;18644;48.700;9.210;2023-04-03T09:06:19;10.50;53.20
32139;DHT22;18644;48.700;9.210;2023-04-03T09:08:48;10.50;53.10
32139;DHT22;18644;48.700;9.210;2023-04-03T09:11:19;10.50;53.00
32139;DHT22;18644;48.700;9.210;2023-04-03T09:13:54;10.60;53.20
32139;DHT22;18644;48.700;9.210;2023-04-03T09:16:27;10.60;52.90
32139;DHT22;18644;48.700;9.210;2023-04-03T09:19:01;10.60;52.40
32139;DHT22;18644;48.700;9.210;2023-04-03T09:21:41;10.60;52.10
32139;DHT22;18644;48.700;9.210;2023-04-03T09:24:09;10.60;52.50
32139;DHT22;18644;48.700;9.210;2023-04-03T09:26:39;10.60;52.50
32139;DHT22;18644;48.700;9.210;2023-04-03T09:29:12;10.60;51.90
32139;DHT22;18644;48.700;9.210;2023-04-03T09:31:43;10.60;52.10
32139;DHT22;18644;48.700;9.210;2023-04-03T09:34:14;10.60;52.30
32139;DHT22;18644;48.700;9.210;2023-04-03T09:36:46;10.60;52.10
32139;DHT22;18644;48.700;9.210;2023-04-03T09:39:15;10.60;51.60
32139;DHT22;18644;48.700;9.210;2023-04-03T09:41:42;10.60;52.10
32139;DHT22;18644;48.700;9.210;2023-04-03T09:44:24;10.70;52.40
32139;DHT22;18644;48.700;9.210;2023-04-03T09:46:52;10.70;52.50
32139;DHT22;18644;48.700;9.210;2023-04-03T09:49:19;10.80;52.20
32139;DHT22;18644;48.700;9.210;2023-04-03T09:51:46;10.80;52.20
32139;DHT22;18644;48.700;9.210;2023-04-03T09:57:01;11.00;52.70
32139;DHT22;18644;48.700;9.210;2023-04-03T09:59:32;11.10;52.30
32139;DHT22;18644;48.700;9.210;2023-04-03T10:02:00;11.20;51.90
32139;DHT22;18644;48.700;9.210;2023-04-03T10:04:36;11.30;51.10
32139;DHT22;18644;48.700;9.210;2023-04-03T10:07:05;11.30;50.80
32139;DHT22;18644;48.700;9.210;2023-04-03T10:09:54;11.30;51.20
32139;DHT22;18644;48.700;9.210;2023-04-03T10:12:21;11.40;50.70
32139;DHT22;18644;48.700;9.210;2023-04-03T10:14:55;11.40;51.10
32139;DHT22;18644;48.700;9.210;2023-04-03T10:17:23;11.50;50.70
32139;DHT22;18644;48.700;9.210;2023-04-03T10:20:09;11.50;50.40
32139;DHT22;18644;48.700;9.210;2023-04-03T10:22:53;11.50;50.60
32139;DHT22;18644;48.700;9.210;2023-04-03T10:25:27;11.40;50.80
32139;DHT22;18644;48.700;9.210;2023-04-03T10:27:58;11.40;50.50
32139;DHT22;18644;48.700;9.210;2023-04-03T10:30:36;11.40;50.80
32139;DHT22;18644;48.700;9.210;2023-04-03T10:33:17;11.40;51.00
32139;DHT22;18644;48.700;9.210;2023-04-03T10:35:50;11.40;50.60
32139;DHT22;18644;48.700;9.210;2023-04-03T10:38:24;11.40;50.50
32139;DHT22;18644;48.700;9.210;2023-04-03T10:41:01;11.40;50.30
32139;DHT22;18644;48.700;9.210;2023-04-03T10:43:33;11.30;50.30
32139;DHT22;18644;48.700;9.210;2023-04-03T10:46:05;11.30;50.50
32139;DHT22;18644;48.700;9.210;2023-04-03T10:51:28;11.20;49.90
32139;DHT22;18644;48.700;9.210;2023-04-03T10:53:57;11.10;49.10
32139;DHT22;18644;48.700;9.210;2023-04-03T10:56:31;11.10;49.80
32139;DHT22;18644;48.700;9.210;2023-04-03T10:59:02;11.00;50.00
32139;DHT22;18644;48.700;9.210;2023-04-03T11:01:37;11.00;50.30
32139;DHT22;18644;48.700;9.210;2023-04-03T11:04:05;11.00;50.40
32139;DHT22;18644;48.700;9.210;2023-04-03T11:06:34;11.00;50.40
32139;DHT22;18644;48.700;9.210;2023-04-03T11:09:05;11.00;50.30
32139;DHT22;18644;48.700;9.210;2023-04-03T11:11:37;11.00;50.20
32139;DHT22;18644;48.700;9.210;2023-04-03T11:14:09;10.90;50.20
32139;DHT22;18644;48.700;9.210;2023-04-03T11:16:43;10.90;50.00
32139;DHT22;18644;48.700;9.210;2023-04-03T11:19:14;10.90;50.10
32139;DHT22;18644;48.700;9.210;2023-04-03T11:21:47;10.80;50.40
32139;DHT22;18644;48.700;9.210;2023-04-03T11:24:20;10.80;50.50
32139;DHT22;18644;48.700;9.210;2023-04-03T11:26:49;10.80;50.30
32139;DHT22;18644;48.700;9.210;2023-04-03T11:29:18;10.80;50.20
32139;DHT22;18644;48.700;9.210;2023-04-03T11:31:54;10.80;50.40
32139;DHT22;18644;48.700;9.210;2023-04-03T11:34:31;10.80;50.00
32139;DHT22;18644;48.700;9.210;2023-04-03T11:37:02;10.80;50.20
32139;DHT22;18644;48.700;9.210;2023-04-03T11:39:32;10.80;50.50
32139;DHT22;18644;48.700;9.210;2023-04-03T11:42:13;10.80;50.10
32139;DHT22;18644;48.700;9.210;2023-04-03T11:44:41;10.80;50.10
32139;DHT22;18644;48.700;9.210;2023-04-03T11:47:10;10.80;49.60
32139;DHT22;18644;48.700;9.210;2023-04-03T11:49:55;10.70;49.50
32139;DHT22;18644;48.700;9.210;2023-04-03T11:55:42;10.70;49.60
32139;DHT22;18644;48.700;9.210;2023-04-03T11:58:21;10.70;49.20
32139;DHT22;18644;48.700;9.210;2023-04-03T12:00:50;10.80;49.50
32139;DHT22;18644;48.700;9.210;2023-04-03T12:03:33;10.80;49.50
32139;DHT22;18644;48.700;9.210;2023-04-03T12:09:26;10.90;49.40
32139;DHT22;18644;48.700;9.210;2023-04-03T12:11:56;10.90;48.60
32139;DHT22;18644;48.700;9.210;2023-04-03T12:14:24;10.80;48.60
32139;DHT22;18644;48.700;9.210;2023-04-03T12:16:52;10.80;48.60
32139;DHT22;18644;48.700;9.210;2023-04-03T12:19:36;10.80;48.80
32139;DHT22;18644;48.700;9.210;2023-04-03T12:22:12;10.80;47.70
32139;DHT22;18644;48.700;9.210;2023-04-03T12:24:40;10.70;47.80
32139;DHT22;18644;48.700;9.210;2023-04-03T12:27:22;10.70;48.10
32139;DHT22;18644;48.700;9.210;2023-04-03T12:29:52;10.70;48.20
32139;DHT22;18644;48.700;9.210;2023-04-03T12:32:30;10.70;48.50
32139;DHT22;18644;48.700;9.210;2023-04-03T12:35:07;10.70;48.30
32139;DHT22;18644;48.700;9.210;2023-04-03T12:40:39;10.80;49.20
32139;DHT22;18644;48.700;9.210;2023-04-03T12:43:14;10.90;48.80
32139;DHT22;18644;48.700;9.210;2023-04-03T12:45:48;11.00;48.80
32139;DHT22;18644;48.700;9.210;2023-04-03T12:48:18;11.10;48.50
32139;DHT22;18644;48.700;9.210;2023-04-03T12:50:51;11.10;48.60
32139;DHT22;18644;48.700;9.210;2023-04-03T12:53:18;11.20;48.40
32139;DHT22;18644;48.700;9.210;2023-04-03T12:55:46;11.30;48.70
32139;DHT22;18644;48.700;9.210;2023-04-03T12:58:14;11.30;48.70
32139;DHT22;18644;48.700;9.210;2023-04-03T13:00:42;11.40;47.50
32139;DHT22;18644;48.700;9.210;2023-04-03T13:03:19;11.40;47.40
32139;DHT22;18644;48.700;9.210;2023-04-03T13:05:50;11.40;47.70
32139;DHT22;18644;48.700;9.210;2023-04-03T13:08:17;11.50;48.40
32139;DHT22;18644;48.700;9.210;2023-04-03T13:10:51;11.60;48.00
32139;DHT22;18644;48.700;9.210;2023-04-03T13:13:21;11.60;47.50
32139;DHT22;18644;48.700;9.210;2023-04-03T13:15:48;11.70;47.60
32139;DHT22;18644;48.700;9.210;2023-04-03T13:21:12;11.70;47.50
32139;DHT22;18644;48.700;9.210;2023-04-03T13:23:42;11.80;47.60
32139;DHT22;18644;48.700;9.210;2023-04-03T13:26:10;11.80;46.90
32139;DHT22;18644;48.700;9.210;2023-04-03T13:28:39;11.90;47.40
32139;DHT22;18644;48.700;9.210;2023-04-03T13:31:07;12.00;47.40
32139;DHT22;18644;48.700;9.210;2023-04-03T13:33:43;12.10;48.00
32139;DHT22;18644;48.700;9.210;2023-04-03T13:36:29;12.20;46.90
32139;DHT22;18644;48.700;9.210;2023-04-03T13:38:58;12.20;46.10
32139;DHT22;18644;48.700;9.210;2023-04-03T13:41:26;12.20;46.50
32139;DHT22;18644;48.700;9.210;2023-04-03T13:43:56;12.10;46.30
32139;DHT22;18644;48.700;9.210;2023-04-03T13:46:24;12.10;46.00
32139;DHT22;18644;48.700;9.210;2023-04-03T13:48:53;12.00;46.10
32139;DHT22;18644;48.700;9.210;2023-04-03T13:51:23;12.00;45.90
32139;DHT22;18644;48.700;9.210;2023-04-03T13:53:52;11.90;46.30
32139;DHT22;18644;48.700;9.210;2023-04-03T13:56:24;11.90;46.60
32139;DHT22;18644;48.700;9.210;2023-04-03T13:58:54;11.90;46.80
32139;DHT22;18644;48.700;9.210;2023-04-03T14:01:39;12.00;45.40
32139;DHT22;18644;48.700;9.210;2023-04-03T14:04:13;12.00;45.20
32139;DHT22;18644;48.700;9.210;2023-04-03T14:06:43;12.00;45.30
32139;DHT22;18644;48.700;9.210;2023-04-03T14:09:11;12.00;45.90
32139;DHT22;18644;48.700;9.210;2023-04-03T14:11:39;12.00;44.50
32139;DHT22;18644;48.700;9.210;2023-04-03T14:14:09;12.00;45.40
32139;DHT22;18644;48.700;9.210;2023-04-03T14:16:40;12.00;45.70
32139;DHT22;18644;48.700;9.210;2023-04-03T14:19:11;12.00;45.80
32139;DHT22;18644;48.700;9.210;2023-04-03T14:21:45;12.00;45.20
32139;DHT22;18644;48.700;9.210;2023-04-03T14:24:12;11.90;45.60
32139;DHT22;18644;48.700;9.210;2023-04-03T14:26:39;11.90;45.80
32139;DHT22;18644;48.700;9.210;2023-04-03T14:29:06;11.90;45.60
32139;DHT22;18644;48.700;9.210;2023-04-03T14:31:33;11.90;46.00
32139;DHT22;18644;48.700;9.210;2023-04-03T14:34:00;11.80;45.30
32139;DHT22;18644;48.700;9.210;2023-04-03T14:36:28;11.80;45.00
32139;DHT22;18644;48.700;9.210;2023-04-03T14:38:57;11.80;45.20
32139;DHT22;18644;48.700;9.210;2023-04-03T14:41:25;11.80;45.30
32139;DHT22;18644;48.700;9.210;2023-04-03T14:43:52;11.70;45.30
32139;DHT22;18644;48.700;9.210;2023-04-03T14:46:19;11.70;45.50
32139;DHT22;18644;48.700;9.210;2023-04-03T14:48:49;11.70;45.60
32139;DHT22;18644;48.700;9.210;2023-04-03T14:51:15;11.70;46.20
32139;DHT22;18644;48.700;9.210;2023-04-03T14:53:43;11.70;46.10
32139;DHT22;18644;48.700;9.210;2023-04-03T14:56:12;11.80;46.60
32139;DHT22;18644;48.700;9.210;2023-04-03T14:58:40;12.00;46.90
32139;DHT22;18644;48.700;9.210;2023-04-03T15:01:08;12.10;46.00
32139;DHT22;18644;48.700;9.210;2023-04-03T15:03:36;12.30;45.80
32139;DHT22;18644;48.700;9.210;2023-04-03T15:06:03;12.40;45.80
32139;DHT22;18644;48.700;9.210;2023-04-03T15:08:30;12.50;46.20
32139;DHT22;18644;48.700;9.210;2023-04-03T15:10:57;12.50;45.20
32139;DHT22;18644;48.700;9.210;2023-04-03T15:13:25;12.40;45.10
32139;DHT22;18644;48.700;9.210;2023-04-03T15:15:52;12.40;44.80
32139;DHT22;18644;48.700;9.210;2023-04-03T15:18:20;12.30;44.90
32139;DHT22;18644;48.700;9.210;2023-04-03T15:23:20;12.20;45.30
32139;DHT22;18644;48.700;9.210;2023-04-03T15:25:51;12.10;45.20
32139;DHT22;18644;48.700;9.210;2023-04-03T15:28:19;12.10;44.90
32139;DHT22;18644;48.700;9.210;2023-04-03T15:30:50;12.00;45.00
32139;DHT22;18644;48.700;9.210;2023-04-03T15:33:17;12.00;45.00
32139;DHT22;18644;48.700;9.210;2023-04-03T15:35:44;12.00;45.20
32139;DHT22;18644;48.700;9.210;2023-04-03T15:38:11;11.90;45.00
32139;DHT22;18644;48.700;9.210;2023-04-03T15:40:38;11.90;44.10
32139;DHT22;18644;48.700;9.210;2023-04-03T15:43:05;11.80;44.30
32139;DHT22;18644;48.700;9.210;2023-04-03T15:45:33;11.80;44.40
32139;DHT22;18644;48.700;9.210;2023-04-03T15:48:02;11.70;44.90
32139;DHT22;18644;48.700;9.210;2023-04-03T15:50:29;11.70;44.80
32139;DHT22;18644;48.700;9.210;2023-04-03T15:52:57;11.70;45.50
32139;DHT22;18644;48.700;9.210;2023-04-03T15:57:53;11.60;44.90
32139;DHT22;18644;48.700;9.210;2023-04-03T16:00:21;11.60;44.90
32139;DHT22;18644;48.700;9.210;2023-04-03T16:02:49;11.50;45.10
32139;DHT22;18644;48.700;9.210;2023-04-03T16:05:19;11.50;45.00
32139;DHT22;18644;48.700;9.210;2023-04-03T16:07:48;11.50;45.60
32139;DHT22;18644;48.700;9.210;2023-04-03T16:11:28;11.50;44.70
32139;DHT22;18644;48.700;9.210;2023-04-03T16:13:56;11.50;45.00
32139;DHT22;18644;48.700;9.210;2023-04-03T16:16:23;11.40;44.70
32139;DHT22;18644;48.700;9.210;2023-04-03T16:18:51;11.50;44.00